Terminal Aerodrome Forecast
Issued by NWS Charleston, WV

Current Version | Previous Version | Text Only | Print | Product List | Glossary Off
Versions: 1 2 3 4 5 6 7 8 9 10 11 12 13 14 15 16 17 18 19 20 21

000
FTUS41 KRLX 020200 AAA
TAFHTS
TAF AMD
KHTS 020232Z 0203/0224 VRB03KT P6SM FEW050
     FM021100 VRB03KT 5SM BR FEW250
     FM021200 VRB03KT P6SM FEW250=

USA.gov is the U.S. government's official web portal to all federal, state and local government web resources and services.